Date,TemperatureHighF,TemperatureAvgF,TemperatureLowF,DewpointHighF,DewpointAvgF,DewpointLowF,HumidityHigh,HumidityAvg,HumidityLow,PressureMaxIn,PressureMinIn,WindSpeedMaxMPH,WindSpeedAvgMPH,GustSpeedMaxMPH,PrecipitationSumIn
2013-1-1,43.4,40.4,36.7,33.0,30.5,27.0,85,68,56,29.98,29.86,5,0,8,0.00
2013-1-2,38.3,32.4,25.3,30.0,20.8,16.0,74,63,50,30.21,29.95,6,1,12,0.00
2013-1-3,34.4,28.5,24.3,24.0,19.5,16.0,88,70,54,30.23,30.14,4,0,7,0.00
2013-1-4,42.4,35.2,25.9,25.0,23.3,22.0,91,63,47,30.18,30.07,6,2,13,0.00
2013-1-5,41.7,35.2,29.8,28.0,24.1,22.0,81,65,52,30.36,30.13,8,1,13,0.00
2013-1-6,49.8,40.5,31.3,34.0,31.7,28.0,94,72,45,30.19,30.00,3,0,5,0.00
2013-1-7,46.7,38.3,27.3,33.0,28.5,24.0,89,69,49,30.42,30.10,7,1,12,0.00
2013-1-8,52.3,40.2,27.5,37.0,33.0,25.0,96,77,53,30.42,30.34,4,0,10,0.00
2013-1-9,58.3,45.3,32.2,47.0,39.8,31.0,97,82,53,30.36,30.20,5,1,11,0.00
2013-1-10,52.3,44.3,37.1,32.0,30.2,28.0,73,58,44,30.56,30.34,7,1,11,0.00
2013-1-11,49.9,41.6,31.6,49.0,38.1,28.0,97,87,71,30.48,30.07,4,0,5,0.07
2013-1-12,53.7,44.8,41.4,48.0,43.3,41.0,98,94,81,30.14,30.07,3,0,5,0.00
2013-1-13,53.0,46.3,39.9,53.0,45.8,39.0,99,98,96,30.12,29.97,2,0,6,0.00
2013-1-14,60.9,53.5,41.2,59.0,50.0,37.0,99,88,66,30.24,29.94,7,1,13,0.16
2013-1-15,40.9,38.6,35.7,40.0,37.6,35.0,97,96,93,30.30,30.12,6,2,12,0.81
2013-1-16,41.0,37.7,34.5,40.0,36.9,34.0,97,96,95,30.11,29.82,6,1,9,0.51
2013-1-17,41.9,39.4,34.4,41.0,37.1,33.0,98,91,72,30.10,29.94,4,0,8,0.22
2013-1-18,35.5,32.4,25.5,34.0,22.0,13.0,97,68,40,30.49,30.00,12,2,21,0.00
2013-1-19,50.1,37.9,26.5,35.0,29.1,22.0,85,72,50,30.43,29.99,5,1,10,0.00
2013-1-20,58.2,46.6,38.7,36.0,28.2,16.0,67,50,29,30.03,29.80,9,3,15,0.00
2013-1-21,45.2,35.0,24.1,35.0,22.9,16.0,86,63,45,30.09,29.75,11,2,24,0.00
2013-1-22,30.7,22.4,18.4,16.0,2.9,-2.0,55,43,34,30.26,29.88,15,3,23,0.00
2013-1-23,26.3,20.1,15.5,10.0,3.7,1.0,62,50,36,30.32,30.14,8,2,19,0.00
2013-1-24,25.4,20.5,15.1,15.0,8.4,1.0,88,62,36,30.48,30.07,14,3,19,0.00
2013-1-25,25.1,21.1,17.5,19.0,10.2,4.0,90,64,47,30.48,30.05,4,0,8,0.00
2013-1-26,32.0,25.8,19.2,21.0,18.0,15.0,89,73,59,30.41,30.05,6,1,13,0.02
2013-1-27,36.2,26.0,17.1,22.0,18.1,14.0,89,73,52,30.57,30.41,4,0,8,0.01
2013-1-28,44.1,35.3,25.5,41.0,32.5,23.0,95,89,80,30.50,30.03,3,0,8,0.01
2013-1-29,67.2,52.0,42.0,53.0,46.2,40.0,94,82,61,30.11,30.00,4,0,8,0.00
2013-1-30,67.2,58.2,48.5,61.0,54.5,46.0,96,88,76,30.00,29.33,7,2,16,0.00
2013-1-31,61.3,45.6,29.3,59.0,32.0,15.0,96,61,37,29.91,29.13,18,4,20,0.68
2013-2-1,31.6,27.2,20.2,28.0,14.7,6.0,94,61,44,30.35,29.79,14,2,19,0.00
2013-2-2,31.1,24.6,16.4,25.0,13.4,6.0,93,64,39,30.36,29.99,5,1,9,0.00
2013-2-3,35.5,28.0,20.4,28.0,23.7,19.0,95,85,61,29.99,29.81,3,0,16,0.04
2013-2-4,34.1,29.6,24.0,30.0,18.0,10.0,86,63,51,30.10,29.89,10,2,22,0.00
2013-2-5,43.7,36.8,29.4,32.0,29.2,27.0,93,75,58,29.91,29.83,2,0,5,0.00
2013-2-6,43.9,34.7,26.2,33.0,27.0,22.0,96,75,52,30.34,29.91,13,2,15,0.00
2013-2-7,40.5,32.7,23.0,30.0,25.7,20.0,90,76,57,30.44,30.17,9,2,12,0.00
2013-2-8,42.0,38.0,34.1,41.0,35.9,28.0,97,92,72,30.16,29.64,11,3,19,0.47
2013-2-9,37.8,32.2,27.4,27.0,20.1,18.0,75,62,49,30.35,29.83,16,4,28,0.00
2013-2-10,43.3,31.9,19.2,30.0,18.5,13.0,84,60,32,30.48,30.27,5,1,5,0.00
2013-2-11,44.3,39.2,35.5,43.0,35.0,30.0,96,85,79,30.26,30.03,5,1,9,0.06
2013-2-17,32.4,28.4,24.6,19.0,10.0,-99.9,69,48,42,30.15,0.00,17,-10,20,0.00
2013-2-18,39.3,28.9,21.2,26.0,12.7,7.0,81,52,31,30.35,30.15,9,2,15,0.00
2013-2-19,40.6,34.5,31.8,34.0,28.1,26.0,81,77,69,30.18,30.00,2,0,8,0.00
2013-2-25,42.9,31.9,28.0,28.0,22.3,-99.9,92,76,55,30.20,30.15,0,-34,3,0.00
2013-2-26,45.1,33.5,26.6,40.0,30.2,25.0,95,88,78,30.21,29.96,15,2,17,0.00
2013-2-28,49.4,42.0,36.7,38.0,32.6,29.0,93,71,51,29.69,29.59,5,1,10,0.14
2013-3-1,46.6,40.7,37.8,34.0,31.2,29.0,77,69,54,29.83,29.68,9,1,16,0.00
2013-3-2,39.5,35.1,30.6,28.0,24.9,22.0,76,67,57,29.83,29.77,6,1,10,0.00
2013-3-3,37.2,33.1,27.3,23.0,21.5,19.0,79,63,55,29.85,29.75,10,2,17,0.00
2013-3-4,40.9,34.3,28.1,23.0,20.0,17.0,67,57,46,29.99,29.85,9,3,18,0.00
2013-3-5,46.8,36.4,26.5,30.0,22.7,17.0,79,59,34,30.06,29.79,8,1,10,0.00
2013-3-6,40.3,37.2,32.6,39.0,35.2,28.0,95,92,71,29.87,29.46,18,7,33,1.47
2013-3-7,46.6,41.0,36.9,31.0,28.2,25.0,76,61,48,30.08,29.87,18,6,21,0.00
2013-3-8,44.9,40.3,34.8,30.0,26.4,23.0,67,58,52,30.20,30.05,22,7,28,0.00
2013-3-9,56.7,43.2,33.0,32.0,26.1,23.0,76,53,29,30.28,30.19,9,2,15,0.00
2013-3-10,60.6,44.6,28.1,37.0,30.1,24.0,94,62,26,30.32,30.23,5,1,8,0.00
2013-3-11,62.0,49.8,37.3,51.0,44.5,36.0,98,83,65,30.25,29.98,5,1,11,0.00
2013-3-12,57.0,53.3,41.6,56.0,49.3,35.0,96,86,71,29.98,29.68,9,2,16,0.59
2013-3-13,51.2,41.6,29.6,38.0,30.9,21.0,95,68,43,30.00,29.86,7,1,14,0.00
2013-3-14,45.1,37.5,31.5,22.0,19.0,16.0,62,48,32,30.07,29.96,15,3,22,0.00
2013-3-15,53.0,41.4,31.0,34.0,25.6,20.0,81,56,31,30.06,29.77,10,2,16,0.00
2013-3-16,58.7,45.2,36.4,45.0,36.7,33.0,88,73,51,29.88,29.63,8,1,12,0.00
2013-3-17,40.2,36.9,34.0,33.0,30.0,27.0,90,77,64,30.24,29.88,6,1,12,0.00
2013-3-18,40.4,37.0,31.3,39.0,31.6,22.0,97,82,59,30.31,29.83,7,2,14,0.30
2013-3-19,56.3,44.9,37.4,43.0,36.8,17.0,98,77,30,29.86,29.69,7,1,12,0.02
2013-3-20,52.0,43.6,34.8,34.0,21.9,17.0,74,44,26,29.98,29.75,10,2,14,0.00
2013-3-21,42.1,34.4,28.9,34.0,20.5,10.0,80,58,37,29.86,29.69,14,4,21,0.00
2013-3-22,46.3,36.1,28.3,23.0,18.7,12.0,68,50,37,29.97,29.85,8,1,15,0.00
2013-3-23,51.2,38.6,24.1,29.0,24.1,20.0,87,58,39,30.00,29.88,8,1,18,0.00
2013-3-24,42.2,35.0,25.5,31.0,24.7,21.0,95,68,46,29.97,29.65,6,1,11,0.00
2013-3-25,34.6,33.1,31.5,33.0,32.0,31.0,97,95,93,29.65,29.44,5,1,9,0.63
2013-3-26,49.7,39.7,29.7,37.0,32.5,29.0,98,77,51,29.93,29.66,8,1,11,0.24
2013-3-27,50.3,42.7,37.9,33.0,30.3,28.0,76,62,45,30.06,29.93,8,1,15,0.00
2013-3-28,48.2,42.2,36.5,37.0,30.9,28.0,80,65,48,30.17,30.05,13,2,19,0.01
2013-3-29,55.0,43.9,34.0,33.0,30.7,28.0,81,62,39,30.21,30.10,7,1,12,0.00
2013-3-30,59.1,46.4,33.1,37.0,31.1,26.0,94,61,30,30.19,30.09,4,0,10,0.00
2013-3-31,59.3,48.3,39.7,51.0,43.0,34.0,95,82,57,30.12,29.72,5,1,12,0.05
2013-4-1,66.0,51.8,43.2,51.0,40.4,21.0,98,69,40,29.92,29.67,9,2,18,0.01
2013-4-2,49.7,42.2,33.5,22.0,18.6,14.0,57,40,25,30.14,29.93,11,2,16,0.00
2013-4-3,51.6,42.3,28.8,23.0,18.5,13.0,68,40,25,30.32,30.14,13,3,19,0.00
2013-4-4,50.6,38.0,25.0,36.0,21.5,15.0,94,54,28,30.39,30.09,4,1,9,0.13
2013-4-5,62.2,47.1,36.3,42.0,34.4,27.0,96,68,28,30.08,29.78,6,1,14,0.91
2013-4-6,54.3,45.8,36.5,33.0,26.7,20.0,74,49,36,30.30,29.99,15,2,15,0.00
2013-4-7,64.5,51.2,36.4,47.0,40.6,31.0,91,69,43,30.29,29.99,5,1,14,0.00
2013-4-8,78.5,61.9,48.5,55.0,49.6,44.0,88,66,40,30.06,29.95,4,1,6,0.00
2013-4-9,84.3,69.8,59.0,58.0,54.8,52.0,78,61,39,30.05,29.92,5,1,10,0.00
2013-4-10,89.9,74.7,62.4,61.0,57.8,55.0,77,58,35,29.95,29.77,7,1,12,0.00
2013-4-11,85.3,67.4,49.5,65.0,57.5,48.0,95,72,48,29.85,29.75,15,3,20,0.00
2013-4-12,76.2,60.0,49.3,69.0,57.7,48.0,99,93,70,29.82,29.55,9,2,13,0.51
2013-4-13,67.3,54.1,42.6,51.0,45.1,41.0,97,74,43,29.92,29.68,14,1,20,0.00
2013-4-14,66.2,54.1,39.8,51.0,43.0,39.0,98,70,38,30.11,29.92,8,1,11,0.00
2013-4-15,60.6,55.2,50.9,49.0,47.1,44.0,88,75,59,30.27,30.10,11,3,13,0.00
2013-4-16,74.0,61.5,49.3,59.0,53.7,47.0,91,76,56,30.29,30.12,4,1,8,0.00
2013-4-17,78.3,64.4,57.4,65.0,58.1,53.0,96,81,58,30.21,30.10,5,1,13,0.00
2013-4-18,78.3,64.1,56.5,66.0,57.7,54.0,96,81,54,30.23,30.02,5,1,8,0.06
2013-4-19,80.0,68.4,59.6,69.0,63.7,58.0,97,85,64,30.01,29.62,14,1,20,0.53
2013-4-20,57.1,50.4,48.8,55.0,41.5,31.0,96,74,50,30.07,29.73,7,2,15,0.54
2013-4-21,54.1,47.6,37.5,33.0,30.6,27.0,83,54,36,30.57,30.49,4,1,11,0.00
2013-4-22,53.7,44.3,31.0,43.0,37.5,29.0,95,78,64,30.56,30.37,7,2,15,0.00
2013-4-23,58.4,49.4,44.0,47.0,43.2,40.0,93,80,64,30.36,30.10,6,2,10,0.00
2013-4-24,71.1,56.9,39.2,59.0,51.0,38.0,98,82,64,30.12,29.81,3,0,14,0.00
2013-4-25,65.7,54.1,42.1,56.0,38.4,32.0,89,57,32,30.27,29.88,15,3,24,0.00
2013-4-26,66.7,52.8,38.3,43.0,38.9,35.0,98,64,35,30.41,30.26,4,1,11,0.00
2013-4-27,71.0,55.9,39.4,47.0,39.7,35.0,96,60,29,30.40,30.27,5,0,6,0.00
2013-4-28,72.4,56.6,40.6,51.0,41.6,35.0,95,61,32,30.28,30.14,2,0,12,0.00
2013-4-29,59.0,54.7,51.1,58.0,53.2,43.0,97,95,67,30.16,30.04,10,1,13,1.00
2013-4-30,58.2,55.2,51.0,56.0,53.6,48.0,98,94,87,30.24,30.05,7,2,13,0.14
2013-5-1,67.3,55.0,45.0,51.0,45.4,40.0,94,73,39,30.40,30.24,10,2,16,0.00
2013-5-2,67.4,54.0,42.7,53.0,46.2,41.0,97,77,43,30.41,30.29,8,1,11,0.00
2013-5-3,60.1,51.7,42.2,48.0,43.1,40.0,96,74,50,30.35,30.28,12,2,15,0.00
2013-5-4,65.8,53.4,42.7,50.0,43.7,38.0,94,72,41,30.31,30.17,11,2,20,0.00
2013-5-5,61.9,50.5,42.3,50.0,43.8,40.0,92,78,60,30.22,30.14,5,1,13,0.00
2013-5-6,61.9,53.7,44.8,57.0,51.8,43.0,97,93,85,30.16,30.04,12,2,13,0.00
2013-5-7,62.8,58.7,55.3,62.0,57.8,55.0,98,96,93,30.05,29.91,8,2,14,1.00
2013-5-8,74.7,61.4,54.0,63.0,56.4,53.0,98,85,51,29.98,29.91,4,0,6,0.11
2013-5-9,74.5,62.6,52.1,62.0,57.6,52.0,99,85,59,29.97,29.89,7,1,9,0.02
2013-5-10,85.6,70.4,54.1,64.0,60.0,54.0,98,73,39,29.99,29.86,3,0,6,0.00
2013-5-11,79.1,69.1,62.6,72.0,64.6,60.0,98,86,65,29.90,29.68,9,0,15,0.64
2013-5-12,65.9,61.0,54.5,61.0,46.1,32.0,97,62,31,29.98,29.69,13,2,15,0.12
2013-5-13,61.8,54.2,42.8,38.0,32.1,26.0,76,44,30,30.12,29.98,9,2,17,0.00
2013-5-14,64.2,52.4,40.8,46.0,35.1,29.0,75,54,34,30.18,30.04,10,1,14,0.00
2013-5-15,83.1,66.5,52.8,65.0,55.7,44.0,89,70,52,30.06,29.67,6,0,8,0.00
2013-5-16,85.8,75.4,64.9,66.0,62.3,60.0,84,65,47,29.86,29.71,5,1,9,0.00
2013-5-17,82.8,70.4,57.8,60.0,51.4,43.0,93,55,28,30.13,29.86,5,1,9,0.00
2013-5-18,66.0,60.4,57.9,59.0,55.9,50.0,97,85,70,30.21,30.14,5,1,7,0.06
2013-5-19,78.1,67.2,58.8,69.0,63.7,58.0,98,89,70,30.18,30.07,3,0,7,0.01
2013-5-20,84.4,72.0,64.8,72.0,67.4,64.0,98,86,64,30.11,29.97,4,0,7,0.00
2013-5-21,85.2,73.3,66.3,73.0,68.4,65.0,97,85,64,29.99,29.87,3,0,8,0.00
2013-5-22,85.8,74.8,68.1,74.0,70.0,67.0,98,86,67,29.92,29.83,4,0,9,0.00
2013-5-23,81.0,73.6,67.5,73.0,68.8,66.0,95,85,70,29.90,29.74,5,0,10,0.00
2013-5-24,67.9,58.3,48.5,67.0,53.2,42.0,98,83,63,30.07,29.71,17,3,22,0.21
2013-5-25,64.7,55.7,46.4,43.0,39.2,37.0,71,55,37,30.10,30.03,11,3,19,0.00
2013-5-26,71.2,59.7,49.0,47.0,41.6,39.0,90,54,31,30.18,30.09,12,1,12,0.00
2013-5-27,74.5,61.2,45.1,54.0,47.8,41.0,97,66,32,30.25,30.15,3,0,7,0.00
2013-5-28,84.6,69.2,58.8,70.0,62.6,54.0,96,80,60,30.18,30.05,4,0,13,0.57
2013-5-29,90.6,76.0,64.9,73.0,68.0,64.0,98,78,51,30.11,30.05,4,0,8,0.00
2013-5-30,90.8,78.2,67.0,74.0,68.8,64.0,92,74,52,30.16,30.09,2,0,8,0.00
2013-5-31,90.3,78.4,66.6,74.0,69.1,66.0,97,75,52,30.14,30.02,3,0,9,0.00
2013-6-1,92.1,79.3,68.3,74.0,70.4,66.0,95,76,54,30.03,29.92,7,1,19,0.00
2013-6-2,87.5,77.3,68.9,74.0,69.8,67.0,97,79,60,29.92,29.81,8,1,16,0.29
2013-6-3,81.4,71.1,66.6,71.0,68.2,65.0,97,91,68,29.89,29.76,4,0,8,0.38
2013-6-4,74.8,66.9,55.0,66.0,53.4,46.0,97,65,38,30.09,29.89,6,1,12,0.00
2013-6-5,81.4,66.7,51.9,61.0,55.5,51.0,98,71,39,30.15,30.05,5,0,8,0.00
2013-6-6,78.4,67.4,56.2,65.0,60.4,54.0,95,79,60,30.08,29.86,7,1,12,0.03
2013-6-7,72.6,69.2,66.3,72.0,68.3,65.0,98,97,93,29.85,29.50,6,1,14,5.15
2013-6-8,79.2,69.4,64.9,69.0,65.8,64.0,98,89,65,30.05,29.62,5,0,12,0.10
2013-6-9,85.3,72.8,61.9,72.0,67.0,61.0,99,83,58,30.17,30.05,4,0,7,0.00
2013-6-10,83.3,74.2,67.0,76.0,71.7,65.0,98,92,78,30.08,29.80,4,0,8,0.65
2013-6-11,84.8,75.0,68.3,73.0,69.6,67.0,98,84,57,29.80,29.73,6,1,10,0.00
2013-6-13,90.1,76.3,69.3,76.0,67.4,-99.9,95,80,55,29.67,29.44,8,1,14,0.15
2013-6-14,76.2,65.6,57.8,61.0,57.4,54.0,94,76,52,29.92,29.51,14,2,17,0.03
2013-6-15,83.7,71.6,58.4,66.0,61.7,58.0,98,74,46,30.04,29.92,2,0,7,0.00
2013-6-16,85.4,74.6,64.7,72.0,68.0,63.0,98,81,59,30.00,29.85,7,1,11,0.00
2013-6-17,87.4,76.7,69.2,74.0,70.9,68.0,96,83,57,29.94,29.86,3,0,8,0.02
2013-6-18,78.6,70.1,61.9,74.0,68.4,61.0,98,94,85,29.90,29.76,4,0,12,1.25
2013-6-19,77.2,67.6,59.4,66.0,63.1,58.0,98,86,62,30.13,29.83,6,1,8,0.01
2013-6-20,82.1,67.8,55.4,64.0,58.0,51.0,99,74,46,30.25,30.14,5,0,9,0.00
2013-6-21,84.2,68.6,52.9,66.0,59.1,51.0,98,74,48,30.28,30.21,3,0,6,0.00
2013-6-22,87.2,73.1,57.7,70.0,64.0,57.0,98,75,51,30.23,30.13,4,0,7,0.00
2013-6-23,83.3,73.7,65.4,77.0,70.0,62.0,97,88,75,30.16,30.05,3,0,9,0.20
2013-6-24,91.2,78.5,70.1,77.0,73.5,69.0,99,86,62,30.10,30.00,5,0,9,0.07
2013-6-25,90.8,79.6,68.6,78.0,73.1,68.0,99,82,56,30.02,29.87,5,0,8,0.01
2013-6-26,92.4,80.2,67.4,80.0,72.8,66.0,96,79,58,29.93,29.77,8,0,11,0.00
2013-6-27,89.4,77.9,69.4,79.0,72.6,68.0,97,84,67,29.80,29.59,7,0,11,0.04
2013-6-28,90.9,77.0,67.1,76.0,71.7,66.0,98,85,59,29.61,29.47,10,1,24,2.54
2013-6-29,89.8,77.1,66.7,76.0,71.8,66.0,99,85,55,29.68,29.50,3,0,6,0.01
2013-6-30,88.6,77.9,72.4,78.0,74.7,72.0,99,90,71,29.84,29.68,1,0,7,0.00
2013-7-1,82.0,75.8,72.8,77.0,74.1,72.0,97,94,85,29.99,29.83,1,0,6,0.63
2013-7-2,87.5,76.4,70.9,79.0,73.7,70.0,98,92,72,30.17,29.99,3,0,7,0.67
2013-7-3,90.9,78.7,71.4,79.0,74.6,71.0,99,88,65,30.22,30.16,2,0,6,0.01
2013-7-4,91.8,80.3,73.2,78.0,74.7,73.0,99,84,59,30.25,30.17,3,0,7,0.00
2013-7-5,90.3,80.8,72.4,78.0,74.6,71.0,97,82,65,30.22,30.11,4,0,10,0.00
2013-7-6,92.0,81.9,74.8,80.0,75.9,71.0,98,83,64,30.16,30.05,4,0,9,0.00
2013-7-7,91.9,82.0,73.1,80.0,74.4,69.0,94,79,62,30.09,29.98,5,1,11,0.00
2013-7-8,86.9,77.3,71.0,76.0,72.0,69.0,97,84,66,30.08,30.01,5,0,7,0.00
2013-7-9,89.2,79.4,72.5,78.0,74.6,71.0,97,86,66,30.07,29.98,1,0,4,0.00
2013-7-13,90.7,82.7,74.4,79.0,75.6,73.0,96,80,65,30.25,30.14,3,0,6,0.00
2013-7-14,91.7,80.9,72.2,79.0,74.7,71.0,99,83,58,30.31,30.25,7,0,7,0.00
2013-7-15,94.2,81.0,70.5,80.0,75.3,70.0,99,84,59,30.28,30.15,6,0,8,0.00
2013-7-16,92.1,83.1,74.8,79.0,74.2,70.0,98,77,50,30.18,30.12,9,1,10,0.00
2013-7-17,94.6,83.3,71.9,79.0,74.7,71.0,99,78,49,30.16,30.06,4,0,9,0.00
2013-7-18,95.6,84.7,74.0,84.0,77.9,73.0,98,81,59,30.08,29.97,3,0,5,0.00
2013-7-19,95.7,85.9,76.4,82.0,78.5,76.0,98,80,58,29.99,29.85,4,0,7,0.00
2013-7-20,91.9,84.1,79.6,81.0,77.4,75.0,89,80,65,29.87,29.77,9,1,11,0.00
2013-7-21,92.3,82.1,73.7,77.0,74.3,72.0,95,78,54,29.91,29.85,6,0,9,0.00
2013-7-22,92.0,80.7,71.8,80.0,75.0,71.0,99,84,62,29.89,29.74,3,0,5,0.00
2013-7-23,89.7,80.4,70.6,78.0,74.0,68.0,96,82,61,29.74,29.61,4,0,10,0.00
2013-7-24,83.7,76.9,69.8,75.0,69.2,64.0,98,78,60,29.85,29.64,7,1,11,0.00
2013-7-25,73.7,68.2,62.7,66.0,60.7,56.0,93,77,69,29.99,29.86,7,2,13,0.00
2013-7-26,85.2,71.7,61.0,67.0,62.9,59.0,96,76,43,30.05,29.98,4,0,7,0.00
2013-7-27,87.8,74.9,65.2,74.0,68.0,64.0,99,81,54,30.04,29.92,2,0,6,0.00
2013-7-28,83.6,71.4,68.5,73.0,68.9,65.0,97,92,71,29.94,29.85,2,0,6,0.28
2013-7-29,82.6,72.5,61.0,70.0,63.3,54.0,98,76,40,30.12,29.93,5,0,9,0.01
2013-7-30,82.4,70.7,59.5,65.0,61.3,57.0,98,75,45,30.19,30.11,4,0,7,0.00
2013-7-31,84.8,72.7,62.3,72.0,66.2,61.0,98,81,60,30.13,30.00,2,0,6,0.00
2013-8-1,78.2,71.2,68.5,73.0,69.6,65.0,98,94,83,30.00,29.80,2,0,8,2.43
2013-8-2,87.5,75.9,66.4,73.0,68.2,64.0,99,80,47,29.94,29.80,3,0,9,0.29
2013-8-3,81.9,73.2,67.4,73.0,67.9,64.0,98,84,56,29.94,29.89,5,0,8,0.00
2013-8-4,81.1,72.0,61.1,68.0,62.1,56.0,97,73,47,29.98,29.86,10,2,13,0.00
2013-8-5,81.2,68.3,58.7,62.0,58.6,54.0,98,74,44,30.07,29.98,4,0,8,0.00
2013-8-6,75.7,67.6,63.3,71.0,65.4,60.0,97,92,80,30.08,29.99,5,0,9,0.30
2013-8-7,86.6,74.0,66.0,78.0,69.9,65.0,98,88,66,30.07,29.99,4,0,6,0.23
2013-8-8,89.8,79.0,72.7,80.0,73.9,70.0,95,85,67,30.03,29.97,2,0,5,0.00
2013-8-9,91.3,81.6,74.5,79.0,76.0,73.0,98,84,67,29.97,29.82,7,1,11,0.19
2013-8-11,84.0,77.8,70.3,75.0,70.8,67.0,91,79,67,30.08,29.99,1,0,5,0.00
2013-8-12,88.3,77.0,67.5,77.0,71.4,67.0,98,84,57,30.01,29.89,3,0,6,0.00
2013-8-13,85.5,77.2,69.5,76.0,72.3,68.0,98,86,62,29.89,29.72,4,0,9,0.99
2013-8-14,73.9,66.7,57.5,69.0,57.4,50.0,97,74,52,30.05,29.75,9,2,16,0.04
2013-8-15,76.3,64.1,55.0,59.0,55.4,49.0,98,76,38,30.15,30.05,4,0,6,0.00
2013-8-16,78.4,66.3,53.1,67.0,57.1,52.0,98,76,43,30.18,30.11,4,0,8,0.00
2013-8-17,80.4,68.8,56.5,66.0,61.3,56.0,98,79,51,30.23,30.16,5,1,11,0.00
2013-8-18,71.8,66.2,61.7,67.0,63.3,60.0,97,90,76,30.19,30.12,4,0,9,0.02
2013-8-19,74.8,67.7,61.2,69.0,65.3,60.0,98,92,80,30.15,30.05,3,0,5,0.01
2013-8-20,86.3,73.4,62.5,75.0,68.4,62.0,98,86,64,30.14,30.06,3,0,5,0.00
2013-8-21,89.3,77.5,68.2,76.0,71.8,67.0,98,84,58,30.18,30.06,2,0,6,0.00
2013-8-22,87.7,77.3,69.2,76.0,72.1,68.0,97,85,63,30.07,29.90,2,0,7,0.25
2013-8-23,78.1,72.5,63.8,71.0,67.1,62.0,94,83,70,30.07,29.89,4,1,10,0.00
2013-8-24,81.8,69.5,59.5,68.0,62.9,59.0,98,81,54,30.31,30.07,5,0,8,0.01
2013-8-25,82.7,66.8,54.1,64.0,58.9,53.0,98,79,46,30.39,30.26,1,0,4,0.00
2013-8-26,84.9,71.2,58.3,69.0,63.4,57.0,96,78,53,30.28,29.98,4,0,9,0.00
2013-8-27,88.1,77.2,69.6,76.0,70.5,66.0,95,80,60,29.98,29.85,5,1,9,0.00
2013-8-28,88.2,75.0,70.6,76.0,72.2,70.0,98,92,63,29.88,29.80,3,0,9,0.57
2013-8-29,83.5,74.5,65.2,74.0,70.2,64.0,97,87,69,30.00,29.80,11,1,11,0.00
2013-8-30,85.2,73.0,62.9,73.0,68.4,62.0,98,86,64,30.02,29.89,2,0,9,0.00
2013-8-31,88.5,78.3,69.6,77.0,72.6,69.0,96,83,65,29.91,29.79,3,0,8,0.00
2013-9-1,90.3,79.3,71.2,77.0,73.5,70.0,96,84,61,29.83,29.74,3,0,6,0.00
2013-9-2,88.0,78.3,72.4,77.0,73.8,71.0,96,86,67,29.78,29.70,4,0,7,0.00
2013-9-3,84.7,75.9,66.2,75.0,67.8,60.0,98,78,48,29.91,29.70,7,1,11,0.00
2013-9-4,80.4,68.7,56.4,63.0,59.7,55.0,96,75,47,30.04,29.92,5,1,9,0.00
2013-9-5,85.4,72.1,60.5,68.0,62.3,55.0,98,74,50,30.08,29.96,6,1,10,0.00
2013-9-6,76.6,64.1,54.7,57.0,53.2,50.0,95,69,44,30.21,30.09,5,1,8,0.00
2013-9-7,80.2,66.3,52.1,64.0,58.2,51.0,98,78,46,30.12,29.91,7,0,8,0.00
2013-9-8,87.5,74.2,62.4,70.0,65.5,61.0,96,76,52,30.01,29.83,4,1,9,0.00
2013-9-9,80.6,69.0,58.0,68.0,60.7,50.0,95,75,59,30.16,30.01,5,0,9,0.00
2013-9-10,89.7,76.7,65.5,77.0,71.2,64.0,98,84,62,30.17,30.07,2,0,6,0.00
2013-9-11,92.5,80.3,71.1,79.0,73.1,70.0,97,80,54,30.12,30.00,3,0,7,0.00
2013-9-12,92.1,77.4,68.6,76.0,71.3,68.0,97,83,52,30.00,29.71,6,0,16,1.06
2013-9-13,71.1,69.5,67.6,71.0,68.8,67.0,98,97,97,29.71,29.66,1,0,3,0.01
2013-9-14,67.6,59.3,49.7,51.0,50.0,48.0,95,73,53,30.14,30.02,7,1,9,0.00
2013-9-15,76.9,60.8,46.0,60.0,53.8,45.0,98,80,49,30.21,30.08,3,0,6,0.00
2013-9-16,73.0,64.7,57.8,66.0,59.3,53.0,96,83,61,30.19,30.02,9,1,12,0.00
2013-9-17,67.3,57.1,46.4,53.0,46.5,41.0,92,70,40,30.38,30.19,7,2,16,0.00
2013-9-18,71.9,56.1,42.4,55.0,49.2,42.0,98,80,50,30.33,30.18,4,0,7,0.00
2013-9-19,76.3,61.1,47.9,60.0,53.6,47.0,98,79,49,30.18,30.07,4,0,6,0.00
2013-9-20,80.4,63.9,51.5,64.0,57.4,51.0,98,81,51,30.07,29.95,3,0,7,0.00
2013-9-21,81.6,67.4,53.8,69.0,62.1,53.0,98,85,53,29.98,29.68,4,0,11,0.44
2013-9-22,71.9,64.1,55.1,65.0,57.1,50.0,97,80,52,29.89,29.67,8,1,14,0.11
2013-9-23,64.9,55.0,44.7,50.0,46.4,44.0,96,74,52,30.05,29.89,7,1,14,0.00
2013-9-24,69.9,54.0,41.8,53.0,47.3,41.0,98,81,49,30.07,29.91,11,1,13,0.00
2013-9-25,74.9,58.1,46.9,55.0,50.8,46.0,98,80,43,29.94,29.85,4,0,7,0.01
2013-9-26,73.8,61.1,52.8,61.0,54.7,52.0,97,82,49,30.04,29.89,3,0,8,0.00
2013-9-27,71.8,60.4,52.0,60.0,54.5,50.0,98,83,58,30.21,30.04,6,0,10,0.00
2013-9-28,72.7,60.2,49.7,59.0,53.8,49.0,97,81,54,30.27,30.18,7,1,11,0.00
2013-9-29,73.8,60.2,50.5,62.0,53.5,49.0,98,81,50,30.18,30.03,7,1,10,0.00
2013-9-30,73.7,58.4,47.1,57.0,51.5,46.0,98,81,47,30.06,29.97,4,0,7,0.01
2013-10-1,81.5,64.6,50.0,65.0,58.1,49.0,98,81,53,30.04,29.94,4,0,6,0.00
2013-10-2,84.1,68.9,56.1,67.0,61.7,56.0,98,80,51,30.05,29.97,4,0,10,0.00
2013-10-3,85.4,69.9,59.0,70.0,63.6,58.0,98,82,51,30.08,30.02,2,0,5,0.00
2013-10-4,86.4,71.9,61.3,71.0,65.0,61.0,99,81,48,30.05,29.98,5,0,5,0.01
2013-10-5,87.4,73.4,63.2,71.0,65.8,62.0,98,79,50,30.05,29.98,4,0,7,0.00
2013-10-6,88.7,74.7,65.4,73.0,67.7,64.0,98,81,52,30.01,29.93,2,0,8,0.00
2013-10-7,81.1,67.8,58.8,73.0,65.5,53.0,97,92,73,30.01,29.79,12,1,13,0.41
2013-10-8,62.0,56.4,52.4,51.0,48.9,47.0,87,76,63,30.24,30.02,7,1,16,0.00
2013-10-9,59.5,55.9,53.9,55.0,52.1,49.0,96,87,79,30.25,30.13,11,2,13,0.43
2013-10-10,60.3,57.8,54.5,59.0,56.9,53.0,97,97,95,30.12,29.89,12,3,16,0.98
2013-10-11,66.1,63.0,60.3,65.0,62.4,60.0,98,98,96,29.93,29.85,8,2,13,0.97
2013-10-12,64.6,62.2,60.8,63.0,61.3,60.0,98,96,92,30.10,29.92,6,2,12,0.25
2013-10-13,64.3,61.2,57.7,62.0,58.4,54.0,98,90,81,30.29,30.10,10,2,14,0.09
2013-10-14,67.8,58.6,52.9,59.0,54.7,51.0,97,87,69,30.29,30.20,6,1,9,0.00
2013-10-15,70.6,58.9,48.3,61.0,54.9,48.0,98,87,66,30.21,30.05,5,0,8,0.01
2013-10-16,72.0,62.6,58.5,64.0,59.6,56.0,97,90,73,30.05,29.91,2,0,5,0.00
2013-10-17,78.2,66.4,59.6,67.0,63.5,59.0,99,91,68,29.91,29.73,5,0,11,0.01
2013-10-18,68.1,58.3,47.0,64.0,48.4,45.0,96,72,49,29.99,29.75,7,1,17,0.00
2013-10-19,62.6,54.7,46.1,61.0,52.5,45.0,98,92,75,29.98,29.78,4,0,8,0.05
2013-10-20,62.4,52.9,42.2,55.0,41.8,37.0,95,68,42,30.08,29.82,9,1,17,0.00
2013-10-21,68.2,52.6,39.0,54.0,45.1,38.0,98,79,43,30.14,29.97,2,0,7,0.00
2013-10-22,66.5,56.0,48.9,56.0,50.7,47.0,97,83,60,29.96,29.78,3,0,7,0.00
2013-10-23,55.7,48.7,43.6,48.0,42.1,38.0,95,79,61,29.84,29.62,6,1,10,0.18
2013-10-24,54.2,45.4,39.0,39.0,34.1,29.0,83,66,45,30.10,29.84,7,1,12,0.00
2013-10-25,54.7,45.2,38.2,38.0,34.6,33.0,84,68,48,30.29,30.09,9,1,13,0.00
2013-10-26,58.1,44.9,30.0,42.0,34.3,29.0,97,70,39,30.28,29.93,8,1,13,0.00
2013-10-27,60.8,49.8,39.1,41.0,38.4,35.0,94,67,44,30.12,29.92,5,0,9,0.00
2013-10-28,65.1,49.3,38.1,50.0,41.8,36.0,96,77,47,30.25,30.12,2,0,7,0.00
2013-10-29,65.2,50.4,40.3,51.0,44.4,39.0,97,81,55,30.34,30.25,4,0,6,0.00
2013-10-30,62.4,53.7,46.6,59.0,52.2,46.0,98,94,81,30.31,30.14,1,0,1,0.03
2013-10-31,69.8,60.8,51.2,63.0,58.0,50.0,98,90,76,30.17,29.82,1,0,7,0.01
2013-11-1,69.2,65.6,61.9,65.0,62.8,61.0,97,91,82,29.81,29.58,7,0,10,0.05
2013-11-2,69.8,59.9,51.6,62.0,52.6,42.0,98,79,45,29.84,29.60,6,1,10,0.02
2013-11-3,54.6,47.8,37.5,44.0,36.0,27.0,87,66,38,30.41,29.84,12,2,19,0.00
2013-11-4,47.2,38.2,30.7,29.0,25.5,22.0,81,62,42,30.60,30.42,6,1,11,0.00
2013-11-5,60.8,48.0,35.5,48.0,41.6,29.0,93,79,58,30.58,30.45,4,0,8,0.00
2013-11-6,68.7,57.5,48.7,56.0,50.6,46.0,94,79,55,30.45,30.06,3,0,7,0.00
2013-11-7,64.3,56.5,46.0,61.0,51.5,33.0,97,84,58,30.05,29.81,7,1,17,0.07
2013-11-8,52.0,43.7,33.4,33.0,28.6,25.0,86,57,38,30.28,30.02,6,1,17,0.00
2013-11-9,54.9,42.3,28.1,38.0,32.5,27.0,95,71,42,30.34,30.02,4,0,9,0.00
2013-11-10,65.0,51.4,40.8,41.0,35.2,30.0,82,57,31,30.18,29.90,14,2,21,0.00
2013-11-11,56.0,46.9,36.0,41.0,34.7,30.0,82,64,45,30.28,30.01,4,0,8,0.00
2013-11-12,49.9,41.4,34.5,39.0,27.1,15.0,73,58,43,30.34,29.95,16,4,22,0.00
2013-11-13,41.9,34.3,26.9,23.0,20.6,16.0,84,59,42,30.43,30.34,14,3,20,0.00
2013-11-14,56.8,39.5,25.5,35.0,27.3,21.0,90,67,28,30.38,30.23,3,0,7,0.00
2013-11-15,56.2,43.5,34.7,40.0,33.2,30.0,86,69,43,30.27,30.18,1,0,5,0.00
2013-11-16,52.2,48.6,43.9,51.0,47.5,41.0,97,96,88,30.30,30.21,3,0,4,0.48
2013-11-17,69.0,56.9,47.0,60.0,54.5,46.0,98,92,73,30.21,29.77,3,0,6,0.01
2013-11-18,69.0,58.2,50.1,62.0,46.2,29.0,98,69,36,29.88,29.68,9,1,14,0.26
2013-11-19,50.7,44.6,36.6,31.0,28.4,25.0,65,54,45,30.33,29.88,19,4,23,0.00
2013-11-20,46.7,36.6,30.7,32.0,27.2,23.0,89,70,49,30.53,30.32,6,1,12,0.00
2013-11-21,54.4,41.1,31.7,45.0,36.2,28.0,96,83,69,30.53,30.36,3,0,6,0.00
2013-11-22,60.6,52.1,41.2,54.0,49.7,40.0,97,92,78,30.36,29.95,5,0,10,0.13
2013-11-23,54.1,45.5,34.1,53.0,31.8,19.0,97,60,40,30.10,29.97,16,3,21,0.00
2013-11-24,33.6,28.3,24.9,17.0,9.9,7.0,58,47,37,30.48,30.12,15,4,23,0.00
2013-11-25,36.2,28.3,20.7,21.0,15.2,12.0,76,59,39,30.56,30.36,4,0,9,0.00
2013-11-26,61.1,40.3,33.5,60.0,33.9,18.0,98,80,48,30.35,29.52,10,2,16,0.89
2013-11-27,61.4,41.0,30.6,61.0,38.1,19.0,97,90,62,29.97,29.44,17,3,18,1.28
2013-11-28,37.1,30.6,25.7,23.0,18.3,16.0,80,61,45,30.47,29.98,8,1,24,0.00
2013-11-29,40.2,30.0,21.7,28.0,20.2,-99.9,93,71,47,30.70,30.45,7,-11,14,0.00
2013-11-30,39.4,30.8,24.3,28.0,23.2,18.0,91,74,57,30.69,30.36,6,0,7,0.00
2013-12-1,47.2,33.8,23.0,37.0,29.1,22.0,97,84,60,30.35,30.00,3,0,4,0.00
2013-12-2,51.5,40.2,28.9,39.0,34.9,28.0,96,82,60,30.00,29.85,2,0,6,0.00
2013-12-3,56.3,44.3,39.2,39.0,36.4,34.0,88,76,45,29.98,29.84,3,0,5,0.00
2013-12-4,56.8,48.5,40.2,51.0,45.1,36.0,96,88,79,30.07,29.98,3,0,3,0.00
2013-12-5,59.4,54.5,47.7,58.0,53.5,47.0,98,96,91,30.07,29.94,2,0,6,0.00
2013-12-6,61.3,51.2,38.5,61.0,50.5,38.0,98,97,93,30.12,29.89,9,2,15,0.50
2013-12-7,41.5,36.6,30.1,38.0,32.3,24.0,97,85,66,30.50,30.08,8,3,15,0.35
2013-12-8,31.8,29.9,27.4,31.0,26.1,22.0,97,86,73,30.55,30.23,6,1,11,0.01
2013-12-9,37.6,33.7,31.3,37.0,33.1,31.0,98,97,95,30.23,30.01,2,0,8,0.18
2013-12-10,34.9,33.2,29.2,34.0,31.1,23.0,97,92,71,30.20,29.93,3,0,6,0.35
2013-12-11,41.1,30.9,23.2,27.0,23.1,19.0,95,74,50,30.40,30.21,5,0,7,0.00
2013-12-12,32.0,26.9,21.1,26.0,17.0,11.0,95,68,45,30.40,30.23,10,2,16,0.00
2013-12-13,41.7,32.7,22.5,25.0,20.7,17.0,86,63,40,30.30,30.20,5,1,13,0.00
2013-12-14,50.1,38.1,30.5,50.0,33.9,26.0,98,85,71,30.31,29.63,11,2,11,0.76
2013-12-15,47.7,38.2,26.0,41.0,32.8,24.0,97,82,59,29.93,29.58,8,1,13,0.00
2013-12-16,35.0,31.7,27.1,28.0,23.6,19.0,89,73,58,30.19,29.93,7,1,11,0.00
2013-12-17,42.8,35.0,30.8,38.0,31.4,24.0,96,87,75,30.16,29.91,6,1,10,0.07
2013-12-18,39.3,31.3,25.7,30.0,25.8,22.0,97,81,54,30.22,29.94,6,0,11,0.12
2013-12-19,56.8,40.6,25.7,35.0,29.6,23.0,95,68,40,30.20,30.07,7,1,11,0.01
2013-12-20,58.8,50.8,42.5,52.0,41.2,31.0,91,70,55,30.11,30.00,5,1,10,0.00
2013-12-21,66.6,57.5,50.5,57.0,51.8,47.0,95,82,65,30.03,29.92,3,1,9,0.00
2013-12-22,70.0,61.0,57.4,65.0,59.1,56.0,96,93,82,30.03,29.88,6,1,12,0.26
2013-12-23,62.1,54.4,40.4,62.0,52.3,31.0,98,92,68,30.18,29.91,13,2,18,0.34
2013-12-24,40.3,35.3,25.3,31.0,23.0,10.0,72,61,45,30.41,30.14,13,4,22,0.00
2013-12-25,32.3,24.9,20.6,18.0,13.9,11.0,85,64,46,30.54,30.39,7,1,13,0.00
2013-12-26,42.9,29.3,20.0,29.0,22.3,18.0,93,77,49,30.39,30.21,5,0,8,0.00
2013-12-27,47.5,34.6,24.6,29.0,24.7,20.0,94,70,39,30.42,30.31,5,0,7,0.00
2013-12-28,53.5,39.9,28.3,35.0,29.9,25.0,90,70,38,30.32,30.12,4,0,9,0.00
2013-12-29,56.2,45.2,40.9,56.0,41.9,32.0,98,89,60,30.11,29.47,11,1,16,1.03
2013-12-30,46.9,36.8,29.8,44.0,32.2,-99.9,98,87,70,30.16,29.81,3,-14,7,0.00
2013-12-31,45.5,34.1,26.1,31.0,22.5,18.0,83,63,49,30.32,30.09,6,1,16,0.00
2014-1-1,46.8,33.2,23.5,31.0,24.5,18.0,91,72,46,30.41,30.13,4,1,9,0.00
2014-1-2,40.8,33.3,28.8,37.0,31.9,28.0,97,94,86,30.12,29.54,5,0,8,0.07